createdAt,value
2019-04-11T00:00:03.510Z,67.07
2019-04-11T00:01:03.805Z,66.78
2019-04-11T00:02:02.709Z,67.17
2019-04-11T00:03:03.063Z,66.38
2019-04-11T00:04:03.901Z,65.72
2019-04-11T00:05:02.696Z,65.52
2019-04-11T00:06:03.358Z,64.89
2019-04-11T00:07:03.755Z,64.69
2019-04-11T00:08:03.742Z,65.10
2019-04-11T00:09:02.706Z,65.72
2019-04-11T00:10:02.692Z,65.62
2019-04-11T00:11:03.736Z,65.52
2019-04-11T00:12:02.594Z,65.41
2019-04-11T00:13:14.215Z,65.72
2019-04-11T00:14:03.586Z,65.55
2019-04-11T00:15:02.578Z,65.62
2019-04-11T00:16:02.591Z,65.31
2019-04-11T00:17:03.666Z,66.03
2019-04-11T00:18:02.856Z,66.03
2019-04-11T00:19:03.122Z,65.62
2019-04-11T00:20:02.510Z,65.20
2019-04-11T00:21:02.492Z,65.10
2019-04-11T00:22:03.510Z,65.52
2019-04-11T00:23:02.481Z,65.31
2019-04-11T00:24:02.758Z,64.79
2019-04-11T00:25:03.177Z,64.55
2019-04-11T00:26:02.446Z,64.97
2019-04-11T00:27:02.537Z,64.97
2019-04-11T00:28:03.503Z,64.34
2019-04-11T00:29:02.406Z,63.41
2019-04-11T00:30:02.412Z,63.72
2019-04-11T00:31:02.410Z,63.51
2019-04-11T00:32:04.918Z,63.62
2019-04-11T00:33:02.383Z,63.62
2019-04-11T00:34:02.601Z,63.31
2019-04-11T00:35:03.588Z,63.10
2019-04-11T00:36:02.333Z,63.51
2019-04-11T00:37:03.096Z,62.99
2019-04-11T00:38:02.332Z,62.79
2019-04-11T00:39:03.431Z,63.10
2019-04-11T00:40:02.345Z,63.41
2019-04-11T00:41:02.274Z,62.89
2019-04-11T00:42:02.267Z,62.79
2019-04-11T00:43:03.153Z,62.48
2019-04-11T00:44:02.897Z,62.16
2019-04-11T00:45:03.254Z,62.16
2019-04-11T00:46:02.980Z,62.24
2019-04-11T00:47:02.219Z,61.93
2019-04-11T00:48:02.205Z,61.72
2019-04-11T00:49:02.187Z,62.89
2019-04-11T00:50:03.980Z,62.37
2019-04-11T00:51:03.423Z,61.96
2019-04-11T00:52:02.647Z,62.68
2019-04-11T00:53:02.140Z,62.68
2019-04-11T00:54:02.608Z,62.89
2019-04-11T00:55:03.044Z,62.27
2019-04-11T00:56:02.114Z,62.89
2019-04-11T00:57:02.109Z,62.37
2019-04-11T00:58:02.109Z,63.10
2019-04-11T00:59:02.525Z,62.37
2019-04-11T01:00:02.897Z,63.10
2019-04-11T01:01:02.074Z,63.41
2019-04-11T01:02:02.114Z,62.99
2019-04-11T01:03:03.371Z,62.66
2019-04-11T01:04:03.291Z,63.41
2019-04-11T01:05:02.101Z,62.79
2019-04-11T01:06:01.996Z,63.51
2019-04-11T01:07:02.742Z,63.41
2019-04-11T01:08:02.979Z,63.31
2019-04-11T01:09:02.150Z,63.10
2019-04-11T01:10:01.955Z,63.41
2019-04-11T01:11:01.947Z,63.62
2019-04-11T01:12:02.615Z,63.82
2019-04-11T01:13:01.942Z,63.96
2019-04-11T01:14:01.906Z,63.65
2019-04-11T01:15:03.121Z,64.37
2019-04-11T01:16:02.966Z,63.75
2019-04-11T01:17:03.129Z,63.51
2019-04-11T01:18:01.870Z,64.37
2019-04-11T01:19:02.576Z,64.34
2019-04-11T01:20:02.904Z,63.65
2019-04-11T01:21:02.100Z,63.96
2019-04-11T01:22:01.822Z,64.03
2019-04-11T01:23:02.797Z,64.17
2019-04-11T01:24:01.823Z,64.37
2019-04-11T01:25:02.145Z,63.72
2019-04-11T01:26:01.775Z,63.62
2019-04-11T01:27:01.764Z,63.31
2019-04-11T01:28:02.623Z,63.82
2019-04-11T01:29:02.938Z,63.51
2019-04-11T01:30:02.173Z,63.82
2019-04-11T01:31:01.731Z,63.72
2019-04-11T01:32:02.317Z,63.62
2019-04-11T01:33:02.507Z,64.14
2019-04-11T01:34:02.388Z,64.45
2019-04-11T01:35:01.729Z,63.44
2019-04-11T01:36:02.610Z,63.44
2019-04-11T01:37:01.738Z,63.75
2019-04-11T01:38:01.648Z,63.96
2019-04-11T01:39:01.644Z,63.96
2019-04-11T01:40:01.617Z,63.96
2019-04-11T01:41:02.460Z,63.96
2019-04-11T01:42:02.680Z,63.44
2019-04-11T01:43:01.955Z,63.65
2019-04-11T01:44:04.164Z,63.65
2019-04-11T01:45:01.580Z,63.85
2019-04-11T01:46:02.174Z,63.96
2019-04-11T01:47:02.540Z,63.72
2019-04-11T01:48:01.641Z,63.65
2019-04-11T01:49:01.528Z,63.54
2019-04-11T01:50:01.511Z,63.13
2019-04-11T01:51:01.495Z,63.54
2019-04-11T01:52:02.439Z,63.85
2019-04-11T01:53:13.006Z,63.75
2019-04-11T01:54:01.610Z,63.75
2019-04-11T01:55:02.021Z,63.23
2019-04-11T01:56:01.461Z,63.96
2019-04-11T01:57:01.468Z,63.65
2019-04-11T01:58:02.470Z,63.23
2019-04-11T01:59:01.428Z,63.54
2019-04-11T02:00:02.003Z,63.13
2019-04-11T02:01:01.416Z,63.75
2019-04-11T02:02:01.379Z,63.65
2019-04-11T02:03:01.367Z,63.23
2019-04-11T02:04:01.505Z,63.65
2019-04-11T02:05:01.362Z,63.37
2019-04-11T02:06:01.337Z,63.47
2019-04-11T02:07:02.438Z,63.85
2019-04-11T02:08:01.335Z,63.44
2019-04-11T02:09:01.941Z,63.68
2019-04-11T02:10:02.462Z,63.16
2019-04-11T02:11:01.405Z,63.57
2019-04-11T02:12:01.661Z,63.99
2019-04-11T02:13:01.754Z,63.37
2019-04-11T02:14:10.416Z,63.26
2019-04-11T02:15:02.255Z,63.57
2019-04-11T02:16:01.452Z,63.68
2019-04-11T02:17:01.295Z,64.51
2019-04-11T02:18:01.373Z,64.20
2019-04-11T02:19:01.664Z,64.23
2019-04-11T02:20:01.176Z,64.43
2019-04-11T02:21:01.171Z,64.95
2019-04-11T02:22:02.153Z,64.95
2019-04-11T02:23:01.148Z,65.06
2019-04-11T02:24:01.608Z,64.12
2019-04-11T02:25:01.134Z,64.43
2019-04-11T02:26:01.176Z,64.43
2019-04-11T02:27:01.105Z,64.95
2019-04-11T02:28:01.191Z,64.75
2019-04-11T02:29:01.354Z,64.75
2019-04-11T02:30:01.396Z,64.75
2019-04-11T02:31:02.900Z,64.95
2019-04-11T02:32:03.440Z,64.43
2019-04-11T02:33:01.048Z,64.85
2019-04-11T02:34:01.986Z,64.95
2019-04-11T02:35:02.430Z,64.75
2019-04-11T02:36:02.802Z,64.98
2019-04-11T02:37:02.384Z,65.16
2019-04-11T02:38:00.996Z,64.75
2019-04-11T02:39:05.828Z,65.37
2019-04-11T02:40:03.234Z,65.50
2019-04-11T02:41:01.255Z,65.29
2019-04-11T02:42:01.459Z,65.60
2019-04-11T02:43:01.017Z,66.12
2019-04-11T02:44:01.491Z,66.22
2019-04-11T02:45:18.498Z,66.36
2019-04-11T02:46:13.032Z,66.25
2019-04-11T02:47:09.455Z,66.75
2019-04-11T02:48:03.812Z,67.40
2019-04-11T02:49:01.531Z,67.68
2019-04-11T02:50:00.935Z,68.02
2019-04-11T02:51:02.516Z,67.71
2019-04-11T02:52:00.936Z,67.30
2019-04-11T02:53:00.972Z,67.40
2019-04-11T02:54:02.266Z,68.02
2019-04-11T02:55:00.896Z,68.23
2019-04-11T02:56:02.641Z,67.99
2019-04-11T02:57:02.404Z,68.10
2019-04-11T02:58:01.794Z,67.71
2019-04-11T02:59:02.285Z,67.79
2019-04-11T03:00:02.051Z,67.58
2019-04-11T03:01:03.506Z,67.82
2019-04-11T03:02:01.274Z,68.13
2019-04-11T03:03:01.665Z,68.13
2019-04-11T03:04:01.908Z,67.47
2019-04-11T03:05:02.634Z,67.30
2019-04-11T03:06:02.311Z,67.50
2019-04-11T03:07:00.695Z,67.50
2019-04-11T03:08:02.521Z,67.71
2019-04-11T03:09:02.579Z,67.37
2019-04-11T03:10:00.619Z,67.19
2019-04-11T03:11:01.813Z,67.30
2019-04-11T03:12:00.606Z,67.47
2019-04-11T03:13:00.906Z,67.40
2019-04-11T03:14:03.216Z,68.13
2019-04-11T03:15:16.551Z,67.71
2019-04-11T03:16:17.249Z,67.58
2019-04-11T03:17:11.991Z,67.30
2019-04-11T03:18:06.047Z,67.68
2019-04-11T03:19:18.063Z,68.02
2019-04-11T03:20:14.372Z,68.72
2019-04-11T03:21:06.148Z,68.65
2019-04-11T03:22:03.146Z,69.27
2019-04-11T03:23:04.789Z,69.06
2019-04-11T03:24:02.864Z,69.37
2019-04-11T03:25:00.547Z,69.48
2019-04-11T03:26:00.722Z,69.37
2019-04-11T03:27:04.470Z,69.58
2019-04-11T03:28:01.501Z,69.61
2019-04-11T03:29:02.001Z,69.51
2019-04-11T03:30:02.759Z,70.20
2019-04-11T03:31:33.219Z,69.58
2019-04-11T03:33:54.488Z,69.17
2019-04-11T03:34:51.869Z,69.37
2019-04-11T03:37:00.807Z,69.27
2019-04-11T03:38:25.865Z,69.17
2019-04-11T03:39:25.280Z,69.40
2019-04-11T03:40:23.850Z,69.27
2019-04-11T03:41:22.112Z,69.40
2019-04-11T03:42:18.680Z,69.68
2019-04-11T03:43:13.382Z,69.48
2019-04-11T03:44:12.092Z,69.30
2019-04-11T03:45:21.043Z,69.27
2019-04-11T03:46:20.173Z,69.71
2019-04-11T03:47:16.821Z,69.51
2019-04-11T03:48:15.550Z,69.71
2019-04-11T03:49:12.346Z,69.51
2019-04-11T03:50:07.716Z,69.68
2019-04-11T03:51:01.923Z,69.71
2019-04-11T03:52:01.201Z,69.92
2019-04-11T03:53:02.277Z,70.13
2019-04-11T03:54:01.072Z,70.23
2019-04-11T03:55:00.521Z,70.75
2019-04-11T03:56:01.675Z,70.65
2019-04-11T03:57:01.225Z,70.75
2019-04-11T03:58:01.174Z,70.65
2019-04-11T03:59:01.404Z,70.54
2019-04-11T04:00:01.065Z,70.65
2019-04-11T04:01:03.345Z,70.86
2019-04-11T04:02:01.055Z,70.75
2019-04-11T04:03:01.507Z,70.86
2019-04-11T04:04:00.588Z,70.86
2019-04-11T04:05:01.328Z,70.97
2019-04-11T04:06:01.882Z,70.54
2019-04-11T04:06:59.999Z,70.86
2019-04-11T04:08:01.752Z,71.17
2019-04-11T04:09:00.625Z,71.48
2019-04-11T04:10:00.457Z,70.75
2019-04-11T04:11:00.634Z,71.17
2019-04-11T04:12:00.365Z,71.59
2019-04-11T04:13:02.092Z,71.38
2019-04-11T04:14:01.404Z,71.51
2019-04-11T04:15:01.343Z,71.38
2019-04-11T04:16:12.415Z,71.17
2019-04-11T04:17:03.846Z,71.80
2019-04-11T04:18:00.182Z,71.59
2019-04-11T04:19:01.696Z,71.48
2019-04-11T04:20:02.047Z,71.17
2019-04-11T04:21:01.349Z,71.69
2019-04-11T04:21:59.826Z,71.69
2019-04-11T04:23:00.884Z,71.59
2019-04-11T04:24:02.192Z,71.90
2019-04-11T04:25:01.058Z,71.80
2019-04-11T04:26:01.082Z,71.72
2019-04-11T04:27:01.756Z,71.69
2019-04-11T04:27:59.780Z,71.69
2019-04-11T04:29:00.070Z,71.69
2019-04-11T04:30:02.376Z,71.69
2019-04-11T04:31:00.241Z,71.48
2019-04-11T04:31:59.719Z,71.59
2019-04-11T04:33:00.645Z,71.59
2019-04-11T04:33:59.755Z,72.21
2019-04-11T04:35:01.100Z,72.42
2019-04-11T04:36:00.261Z,72.31
2019-04-11T04:37:00.157Z,72.42
2019-04-11T04:37:59.815Z,72.94
2019-04-11T04:39:01.297Z,72.66
2019-04-11T04:40:21.196Z,72.42
2019-04-11T04:41:14.706Z,72.42
2019-04-11T04:42:08.255Z,72.42
2019-04-11T04:43:02.800Z,72.21
2019-04-11T04:44:01.496Z,71.80
2019-04-11T04:44:59.727Z,72.83
2019-04-11T04:46:20.383Z,72.83
2019-04-11T04:48:04.586Z,73.46
2019-04-11T04:49:00.537Z,72.83
2019-04-11T04:50:01.247Z,72.73
2019-04-11T04:51:05.195Z,72.52
2019-04-11T04:52:01.494Z,72.94
2019-04-11T04:53:00.926Z,73.14
2019-04-11T04:54:00.116Z,73.46
2019-04-11T04:55:01.374Z,73.97
2019-04-11T04:56:00.374Z,73.66
2019-04-11T04:57:00.834Z,74.60
2019-04-11T04:57:59.771Z,74.18
2019-04-11T04:58:59.797Z,73.66
2019-04-11T05:00:00.155Z,73.77
2019-04-11T05:01:01.447Z,73.56
2019-04-11T05:01:59.434Z,73.97
2019-04-11T05:03:01.960Z,74.49
2019-04-11T05:03:59.372Z,74.29
2019-04-11T05:05:01.087Z,74.49
2019-04-11T05:06:01.210Z,74.60
2019-04-11T05:07:00.968Z,74.18
2019-04-11T05:08:00.635Z,73.87
2019-04-11T05:09:00.188Z,74.29
2019-04-11T05:10:00.771Z,74.18
2019-04-11T05:10:59.278Z,73.66
2019-04-11T05:11:59.283Z,73.66
2019-04-11T05:12:59.435Z,73.77
2019-04-11T05:14:00.754Z,73.87
2019-04-11T05:14:59.291Z,73.97
2019-04-11T05:16:08.490Z,73.77
2019-04-11T05:17:00.531Z,73.22
2019-04-11T05:17:59.880Z,73.43
2019-04-11T05:18:59.472Z,73.46
2019-04-11T05:19:59.208Z,73.11
2019-04-11T05:20:59.173Z,72.73
2019-04-11T05:21:59.752Z,72.80
2019-04-11T05:23:00.009Z,72.28
2019-04-11T05:23:59.140Z,72.69
2019-04-11T05:25:01.744Z,72.59
2019-04-11T05:26:00.085Z,72.49
2019-04-11T05:26:59.881Z,72.49
2019-04-11T05:28:00.129Z,72.49
2019-04-11T05:28:59.064Z,72.04
2019-04-11T05:29:59.064Z,71.45
2019-04-11T05:30:59.059Z,71.62
2019-04-11T05:31:59.053Z,71.55
2019-04-11T05:32:59.769Z,71.31
2019-04-11T05:33:59.394Z,71.31
2019-04-11T05:34:59.051Z,71.11
2019-04-11T05:35:59.042Z,71.11
2019-04-11T05:36:58.978Z,71.31
2019-04-11T05:37:59.893Z,71.21
2019-04-11T05:39:00.303Z,71.73
2019-04-11T05:39:58.942Z,70.87
2019-04-11T05:40:58.960Z,70.66
2019-04-11T05:41:58.938Z,70.25
2019-04-11T05:42:59.625Z,70.97
2019-04-11T05:44:03.459Z,70.52
2019-04-11T05:45:00.028Z,70.76
2019-04-11T05:46:00.160Z,70.62
2019-04-11T05:47:01.022Z,70.73
2019-04-11T05:47:58.858Z,70.31
2019-04-11T05:49:00.699Z,69.48
2019-04-11T05:49:59.024Z,69.07
2019-04-11T05:50:58.849Z,69.48
2019-04-11T05:52:00.286Z,68.96
2019-04-11T05:53:01.148Z,69.48
2019-04-11T05:54:01.902Z,69.07
2019-04-11T05:55:00.694Z,68.86
2019-04-11T05:55:59.430Z,69.48
2019-04-11T05:56:59.595Z,69.45
2019-04-11T05:57:58.760Z,69.04
2019-04-11T05:58:59.853Z,69.45
2019-04-11T05:59:59.199Z,69.04
2019-04-11T06:00:59.627Z,69.69
2019-04-11T06:02:03.292Z,69.56
2019-04-11T06:02:59.753Z,69.35
2019-04-11T06:04:00.315Z,69.45
2019-04-11T06:04:58.683Z,69.04
2019-04-11T06:06:00.364Z,69.35
2019-04-11T06:07:00.025Z,69.24
2019-04-11T06:07:58.644Z,69.04
2019-04-11T06:09:00.761Z,68.93
2019-04-11T06:09:58.727Z,69.04
2019-04-11T06:11:01.377Z,69.66
2019-04-11T06:11:58.585Z,69.24
2019-04-11T06:12:58.991Z,69.24
2019-04-11T06:14:02.439Z,69.56
2019-04-11T06:14:59.726Z,70.07
2019-04-11T06:16:01.982Z,69.24
2019-04-11T06:17:07.205Z,69.56
2019-04-11T06:18:06.997Z,69.21
2019-04-11T06:18:58.784Z,69.35
2019-04-11T06:19:58.679Z,69.24
2019-04-11T06:20:58.488Z,69.32
2019-04-11T06:21:58.487Z,68.59
2019-04-11T06:22:58.523Z,68.59
2019-04-11T06:23:59.291Z,69.11
2019-04-11T06:24:58.667Z,68.59
2019-04-11T06:25:59.225Z,67.97
2019-04-11T06:26:58.916Z,68.66
2019-04-11T06:27:58.440Z,68.25
2019-04-11T06:28:59.104Z,67.83
2019-04-11T06:29:59.165Z,68.38
2019-04-11T06:30:59.018Z,68.66
2019-04-11T06:31:59.183Z,68.74
2019-04-11T06:32:58.436Z,68.63
2019-04-11T06:33:58.791Z,67.29
2019-04-11T06:34:58.323Z,68.01
2019-04-11T06:35:58.325Z,67.88
2019-04-11T06:36:58.328Z,67.25
2019-04-11T06:37:59.199Z,67.18
2019-04-11T06:38:58.765Z,66.22
2019-04-11T06:39:59.366Z,66.02
2019-04-11T06:40:58.259Z,66.53
2019-04-11T06:41:59.068Z,67.05
2019-04-11T06:42:59.358Z,66.12
2019-04-11T06:43:58.557Z,65.81
2019-04-11T06:44:58.485Z,66.94
2019-04-11T06:45:58.222Z,66.84
2019-04-11T06:47:00.647Z,66.02
2019-04-11T06:47:59.032Z,66.09
2019-04-11T06:48:58.229Z,65.47
2019-04-11T06:49:58.581Z,65.99
2019-04-11T06:50:58.145Z,66.39
2019-04-11T06:51:58.135Z,65.44
2019-04-11T06:52:58.254Z,65.85
2019-04-11T06:53:58.800Z,64.81
2019-04-11T06:54:58.257Z,64.58
2019-04-11T06:56:00.132Z,64.99
2019-04-11T06:56:59.189Z,64.89
2019-04-11T06:57:58.494Z,64.37
2019-04-11T06:58:58.072Z,65.02
2019-04-11T06:59:58.746Z,64.92
2019-04-11T07:00:58.048Z,64.92
2019-04-11T07:02:07.991Z,64.71
2019-04-11T07:02:59.351Z,64.71
2019-04-11T07:03:58.003Z,64.61
2019-04-11T07:04:58.198Z,64.58
2019-04-11T07:05:58.013Z,64.58
2019-04-11T07:06:57.989Z,64.68
2019-04-11T07:07:58.002Z,64.48
2019-04-11T07:08:58.896Z,64.76
2019-04-11T07:09:57.942Z,64.76
2019-04-11T07:10:58.837Z,64.73
2019-04-11T07:11:59.197Z,63.49
2019-04-11T07:12:59.352Z,62.43
2019-04-11T07:13:57.896Z,63.32
2019-04-11T07:14:58.091Z,61.47
2019-04-11T07:15:57.879Z,61.47
2019-04-11T07:17:04.065Z,61.26
2019-04-11T07:17:58.953Z,62.22
2019-04-11T07:18:57.844Z,62.63
2019-04-11T07:19:57.924Z,61.88
2019-04-11T07:20:58.558Z,61.05
2019-04-11T07:21:58.179Z,61.88
2019-04-11T07:22:57.804Z,61.65
2019-04-11T07:23:57.784Z,61.44
2019-04-11T07:24:57.778Z,60.61
2019-04-11T07:25:58.080Z,61.10
2019-04-11T07:26:58.825Z,59.56
2019-04-11T07:27:57.743Z,60.15
2019-04-11T07:28:58.586Z,59.30
2019-04-11T07:29:58.517Z,58.16
2019-04-11T07:30:58.070Z,58.98
2019-04-11T07:31:57.707Z,58.89
2019-04-11T07:32:57.674Z,58.81
2019-04-11T07:33:59.149Z,58.91
2019-04-11T07:34:57.666Z,59.94
2019-04-11T07:35:59.770Z,59.14
2019-04-11T07:36:57.957Z,59.42
2019-04-11T07:37:58.185Z,58.68
2019-04-11T07:38:58.853Z,57.93
2019-04-11T07:39:58.592Z,58.06
2019-04-11T07:40:58.913Z,58.42
2019-04-11T07:41:58.102Z,57.70
2019-04-11T07:43:03.754Z,57.73
2019-04-11T07:43:58.579Z,57.39
2019-04-11T07:44:57.648Z,56.98
2019-04-11T07:45:58.318Z,56.95
2019-04-11T07:46:58.237Z,55.51
2019-04-11T07:47:58.343Z,56.54
2019-04-11T07:48:57.492Z,57.08
2019-04-11T07:49:58.213Z,57.39
2019-04-11T07:50:57.630Z,58.11
2019-04-11T07:51:58.160Z,58.11
2019-04-11T07:52:58.262Z,56.77
2019-04-11T07:53:57.489Z,56.51
2019-04-11T07:54:57.435Z,56.08
2019-04-11T07:55:57.839Z,55.72
2019-04-11T07:56:58.451Z,54.77
2019-04-11T07:57:57.399Z,54.36
2019-04-11T07:58:58.361Z,53.05
2019-04-11T07:59:57.865Z,53.15
2019-04-11T08:00:57.357Z,53.03
2019-04-11T08:01:57.343Z,53.23
2019-04-11T08:02:57.483Z,53.20
2019-04-11T08:03:57.921Z,52.34
2019-04-11T08:04:57.662Z,51.06
2019-04-11T08:05:57.309Z,51.88
2019-04-11T08:06:58.470Z,50.42
2019-04-11T08:07:57.404Z,49.40
2019-04-11T08:08:58.193Z,50.83
2019-04-11T08:09:57.263Z,50.12
2019-04-11T08:10:58.119Z,50.09
2019-04-11T08:11:58.357Z,49.81
2019-04-11T08:12:58.244Z,49.60
2019-04-11T08:13:57.225Z,50.14
2019-04-11T08:14:57.244Z,50.70
2019-04-11T08:15:57.918Z,50.98
2019-04-11T08:16:57.496Z,49.85
2019-04-11T08:17:57.179Z,50.39
2019-04-11T08:18:57.242Z,50.52
2019-04-11T08:19:57.482Z,51.98
2019-04-11T08:20:57.420Z,51.23
2019-04-11T08:21:57.135Z,51.42
2019-04-11T08:22:57.207Z,51.67
2019-04-11T08:23:58.019Z,51.29
2019-04-11T08:24:57.140Z,50.85
2019-04-11T08:25:57.740Z,50.40
2019-04-11T08:26:57.070Z,49.27
2019-04-11T08:28:01.348Z,48.72
2019-04-11T08:29:04.193Z,49.13
2019-04-11T08:29:58.299Z,47.04
2019-04-11T08:30:57.401Z,46.71
2019-04-11T08:31:57.669Z,46.71
2019-04-11T08:32:58.147Z,47.37
2019-04-11T08:33:57.256Z,48.02
2019-04-11T08:34:56.991Z,48.86
2019-04-11T08:35:58.366Z,50.37
2019-04-11T08:36:56.957Z,52.39
2019-04-11T08:37:57.855Z,53.25
2019-04-11T08:38:56.970Z,53.79
2019-04-11T08:39:57.633Z,51.87
2019-04-11T08:40:56.917Z,50.78
2019-04-11T08:41:57.003Z,49.24
2019-04-11T08:42:57.023Z,49.72
2019-04-11T08:43:56.876Z,51.48
2019-04-11T08:44:58.521Z,51.02
2019-04-11T08:45:56.897Z,51.51
2019-04-11T08:46:57.851Z,52.31
2019-04-11T08:47:58.796Z,50.39
2019-04-11T08:48:57.402Z,50.65
2019-04-11T08:49:57.049Z,48.56
2019-04-11T08:50:56.792Z,46.57
2019-04-11T08:51:57.838Z,46.49
2019-04-11T08:52:56.781Z,46.59
2019-04-11T08:53:57.256Z,46.55
2019-04-11T08:54:57.620Z,45.29
2019-04-11T08:55:58.998Z,46.03
2019-04-11T08:56:56.766Z,46.76
2019-04-11T08:57:56.746Z,46.86
2019-04-11T08:58:57.292Z,44.79
2019-04-11T08:59:57.674Z,45.33
2019-04-11T09:00:59.316Z,49.18
2019-04-11T09:01:56.672Z,49.77
2019-04-11T09:02:57.525Z,50.43
2019-04-11T09:04:04.444Z,52.40
2019-04-11T09:05:04.992Z,51.89
2019-04-11T09:05:58.070Z,54.10
2019-04-11T09:06:56.816Z,53.61
2019-04-11T09:07:56.604Z,53.53
2019-04-11T09:08:56.630Z,55.10
2019-04-11T09:09:57.668Z,54.90
2019-04-11T09:10:56.594Z,54.79
2019-04-11T09:11:56.554Z,54.58
2019-04-11T09:12:56.551Z,53.23
2019-04-11T09:13:57.738Z,50.99
2019-04-11T09:14:56.829Z,50.64
2019-04-11T09:15:57.238Z,52.84
2019-04-11T09:16:56.511Z,53.33
2019-04-11T09:18:03.375Z,53.64
2019-04-11T09:18:59.696Z,53.12
2019-04-11T09:19:56.999Z,52.48
2019-04-11T09:20:56.464Z,50.04
2019-04-11T09:21:56.476Z,51.07
2019-04-11T09:22:57.463Z,51.07
2019-04-11T09:23:56.444Z,50.06
2019-04-11T09:24:56.911Z,50.37
2019-04-11T09:25:56.597Z,50.40
2019-04-11T09:26:56.434Z,50.58
2019-04-11T09:27:57.488Z,50.78
2019-04-11T09:28:56.372Z,50.58
2019-04-11T09:29:56.672Z,50.37
2019-04-11T09:30:57.013Z,49.52
2019-04-11T09:31:56.350Z,48.91
2019-04-11T09:32:56.319Z,46.89
2019-04-11T09:33:57.409Z,46.13
2019-04-11T09:34:56.306Z,44.45
2019-04-11T09:35:57.565Z,44.70
2019-04-11T09:36:57.431Z,42.79
2019-04-11T09:37:56.272Z,41.94
2019-04-11T09:38:56.973Z,40.51
2019-04-11T09:39:56.298Z,42.16
2019-04-11T09:40:57.162Z,43.04
2019-04-11T09:41:56.630Z,43.59
2019-04-11T09:42:56.211Z,43.32
2019-04-11T09:43:56.202Z,44.59
2019-04-11T09:44:57.175Z,45.66
2019-04-11T09:45:56.171Z,46.17
2019-04-11T09:46:57.052Z,46.25
2019-04-11T09:48:09.397Z,44.71
2019-04-11T09:48:58.040Z,45.43
2019-04-11T09:49:56.144Z,45.03
2019-04-11T09:50:56.679Z,43.90
2019-04-11T09:51:56.125Z,45.25
2019-04-11T09:52:56.147Z,46.81
2019-04-11T09:53:56.090Z,47.30
2019-04-11T09:54:56.793Z,46.58
2019-04-11T09:55:56.059Z,47.09
2019-04-11T09:56:56.108Z,46.07
2019-04-11T09:57:58.244Z,45.43
2019-04-11T09:58:56.163Z,45.03
2019-04-11T09:59:56.117Z,45.13
2019-04-11T10:00:56.004Z,45.10
2019-04-11T10:01:56.160Z,43.16
2019-04-11T10:02:56.353Z,44.80
2019-04-11T10:03:57.244Z,43.77
2019-04-11T10:04:57.507Z,43.67
2019-04-11T10:05:56.747Z,43.26
2019-04-11T10:06:57.056Z,45.10
2019-04-11T10:07:55.922Z,45.21
2019-04-11T10:08:55.921Z,45.31
2019-04-11T10:09:56.874Z,46.21
2019-04-11T10:10:55.912Z,44.80
2019-04-11T10:11:56.838Z,43.98
2019-04-11T10:12:56.217Z,44.64
2019-04-11T10:13:55.855Z,45.36
2019-04-11T10:14:55.856Z,44.82
2019-04-11T10:15:55.852Z,45.03
2019-04-11T10:16:56.113Z,44.80
2019-04-11T10:17:56.927Z,45.84
2019-04-11T10:18:55.807Z,42.13
2019-04-11T10:19:56.143Z,43.14
2019-04-11T10:20:57.078Z,42.11
2019-04-11T10:21:56.449Z,42.83
2019-04-11T10:22:56.379Z,43.43
2019-04-11T10:23:56.783Z,43.12
2019-04-11T10:24:56.817Z,42.61
2019-04-11T10:25:55.988Z,40.86
2019-04-11T10:26:56.325Z,41.31
2019-04-11T10:27:55.701Z,40.88
2019-04-11T10:28:55.796Z,41.50
2019-04-11T10:29:56.734Z,40.68
2019-04-11T10:30:55.830Z,41.27
2019-04-11T10:31:56.849Z,40.78
2019-04-11T10:32:55.650Z,40.56
2019-04-11T10:33:55.645Z,40.44
2019-04-11T10:34:55.618Z,40.50
2019-04-11T10:35:56.696Z,39.29
2019-04-11T10:36:55.835Z,40.30
2019-04-11T10:37:56.030Z,39.48
2019-04-11T10:38:55.572Z,40.69
2019-04-11T10:39:55.559Z,38.92
2019-04-11T10:40:56.558Z,41.09
2019-04-11T10:41:55.940Z,41.11
2019-04-11T10:42:55.982Z,43.24
2019-04-11T10:43:55.553Z,42.38
2019-04-11T10:44:56.281Z,40.11
2019-04-11T10:45:55.492Z,39.89
2019-04-11T10:46:55.765Z,38.96
2019-04-11T10:47:55.974Z,40.60
2019-04-11T10:48:55.508Z,41.08
2019-04-11T10:49:56.660Z,39.20
2019-04-11T10:50:56.187Z,38.95
2019-04-11T10:51:56.069Z,40.21
2019-04-11T10:52:55.443Z,40.91
2019-04-11T10:53:55.489Z,40.48
2019-04-11T10:54:55.410Z,39.97
2019-04-11T10:55:55.406Z,40.19
2019-04-11T10:56:55.771Z,40.74
2019-04-11T10:57:56.177Z,41.15
2019-04-11T10:58:55.502Z,40.88
2019-04-11T10:59:56.558Z,42.77
2019-04-11T11:00:55.676Z,43.26
2019-04-11T11:01:56.072Z,42.66
2019-04-11T11:02:55.785Z,44.70
2019-04-11T11:03:55.551Z,42.46
2019-04-11T11:04:55.342Z,41.33
2019-04-11T11:05:55.560Z,42.97
2019-04-11T11:06:55.878Z,42.66
2019-04-11T11:07:55.244Z,42.46
2019-04-11T11:08:55.505Z,41.91
2019-04-11T11:09:55.224Z,41.39
2019-04-11T11:10:55.575Z,41.53
2019-04-11T11:11:55.210Z,42.29
2019-04-11T11:12:55.199Z,43.77
2019-04-11T11:13:56.268Z,44.98
2019-04-11T11:14:55.425Z,44.88
2019-04-11T11:15:56.003Z,44.68
2019-04-11T11:16:55.200Z,46.09
2019-04-11T11:18:27.220Z,45.99
2019-04-11T11:19:24.464Z,46.09
2019-04-11T11:20:08.915Z,44.78
2019-04-11T11:21:00.320Z,45.50
2019-04-11T11:21:59.867Z,45.48
2019-04-11T11:22:55.977Z,44.96
2019-04-11T11:23:55.080Z,46.11
2019-04-11T11:24:55.052Z,45.60
2019-04-11T11:25:55.036Z,45.93
2019-04-11T11:26:57.967Z,45.01
2019-04-11T11:27:55.770Z,45.60
2019-04-11T11:28:55.008Z,46.24
2019-04-11T11:29:56.150Z,47.16
2019-04-11T11:30:56.294Z,45.64
2019-04-11T11:31:54.969Z,46.77
2019-04-11T11:32:55.899Z,47.06
2019-04-11T11:33:54.979Z,46.86
2019-04-11T11:34:55.092Z,45.60
2019-04-11T11:35:56.805Z,45.50
2019-04-11T11:36:56.734Z,45.07
2019-04-11T11:37:55.536Z,43.84
2019-04-11T11:38:54.905Z,43.85
2019-04-11T11:39:56.813Z,45.50
2019-04-11T11:40:54.873Z,44.88
2019-04-11T11:41:54.889Z,43.57
2019-04-11T11:42:54.851Z,43.85
2019-04-11T11:43:55.122Z,44.68
2019-04-11T11:44:55.253Z,44.68
2019-04-11T11:45:56.693Z,45.60
2019-04-11T11:46:54.800Z,45.01
2019-04-11T11:47:55.274Z,45.21
2019-04-11T11:48:54.782Z,46.03
2019-04-11T11:50:00.212Z,45.01
2019-04-11T11:50:55.761Z,45.01
2019-04-11T11:51:58.021Z,47.24
2019-04-11T11:52:55.743Z,46.94
2019-04-11T11:53:55.323Z,46.83
2019-04-11T11:54:55.716Z,45.29
2019-04-11T11:55:55.710Z,45.72
2019-04-11T11:56:54.709Z,45.29
2019-04-11T11:57:55.194Z,45.50
2019-04-11T11:58:57.861Z,43.67
2019-04-11T11:59:54.657Z,45.10
2019-04-11T12:00:57.133Z,45.21
2019-04-11T12:01:55.787Z,45.29
2019-04-11T12:02:55.459Z,44.57
2019-04-11T12:03:57.557Z,44.57
2019-04-11T12:04:54.610Z,44.88
2019-04-11T12:05:54.601Z,45.27
2019-04-11T12:06:59.886Z,44.94
2019-04-11T12:07:56.009Z,45.04
2019-04-11T12:08:54.552Z,45.27
2019-04-11T12:09:55.072Z,45.50
2019-04-11T12:10:54.535Z,45.40
2019-04-11T12:11:55.557Z,46.96
2019-04-11T12:12:54.506Z,46.94
2019-04-11T12:13:55.701Z,47.55
2019-04-11T12:14:54.489Z,46.83
2019-04-11T12:15:54.522Z,45.07
2019-04-11T12:16:59.637Z,46.30
2019-04-11T12:17:55.471Z,44.98
2019-04-11T12:18:55.041Z,45.09
2019-04-11T12:20:01.427Z,45.70
2019-04-11T12:20:57.453Z,44.98
2019-04-11T12:21:55.768Z,45.40
2019-04-11T12:22:55.150Z,46.24
2019-04-11T12:24:00.691Z,47.24
2019-04-11T12:24:56.451Z,45.70
2019-04-11T12:25:55.513Z,45.60
2019-04-11T12:26:54.361Z,44.98
2019-04-11T12:27:54.347Z,45.50
2019-04-11T12:28:54.330Z,46.11
2019-04-11T12:29:54.336Z,44.78
2019-04-11T12:30:57.960Z,44.88
2019-04-11T12:31:55.730Z,44.68
2019-04-11T12:32:55.105Z,44.68
2019-04-11T12:33:54.278Z,45.31
2019-04-11T12:34:54.347Z,44.70
2019-04-11T12:35:55.092Z,45.09
2019-04-11T12:36:54.715Z,44.47
2019-04-11T12:37:54.505Z,45.19
2019-04-11T12:38:54.900Z,45.09
2019-04-11T12:39:54.206Z,45.19
2019-04-11T12:40:54.211Z,45.10
2019-04-11T12:41:54.179Z,45.13
2019-04-11T12:42:54.210Z,45.10
2019-04-11T12:43:54.158Z,45.52
2019-04-11T12:44:54.174Z,44.59
2019-04-11T12:45:54.132Z,45.03
2019-04-11T12:46:54.142Z,45.34
2019-04-11T12:47:54.131Z,45.95
2019-04-11T12:48:54.133Z,45.21
2019-04-11T12:49:54.087Z,44.80
2019-04-11T12:50:54.085Z,44.59
2019-04-11T12:51:54.093Z,43.67
2019-04-11T12:52:54.061Z,44.17
2019-04-11T12:53:54.076Z,43.75
2019-04-11T12:54:54.045Z,44.86
2019-04-11T12:55:54.050Z,44.56